Pagrindinis puslapis
METAR-TAF:

METAR-TAF

Oro uostai :

Santanderas, Ispanija

platuma: 43-26N, ilguma: 003-49W, Aukštis: 6 m

Dabartinis oras

Ataskaita buvo paskelbta 37 minutes, ne 16:30 UTC
Vėjas 9 kt iš Rytų, svyruoja nuo Rytų/Šiaurės Rytų ir Pietryčių
Temperatūra 9°C
Drėgmė 87%
Slėgis 1012 hPa
Matomumas 10 km arba daugiau
Išsisklaidę debesys ne aukštis 1300 ft

METAR: LEXJ 311630Z 10009KT 060V130 9999 SCT013 09/07 Q1012

Laikas: 19:07 (17:07 UTC)

Prognozė

Ataskaita buvo paskelbta 3 valandos ir 7 minutes, ne 14:00 UTC
Prognozė galioja nuo 31 metu 15 UTC su 01 metu 15 UTC
Vėjas 12 kt iš Rytų
Matomumas 10 km arba daugiau
Su prošvaistėmis ne aukštis 4500 ft
Laikinai
nuo 31 metu 15 UTC su 31 metu 21 UTC
Vėjas 15 kt iš Rytų/Šiaurės Rytų su gūsio iki 26 kt
Tapsmas
nuo 31 metu 18 UTC su 31 metu 22 UTC
Vėjas 5 kt nuo kintamojo kryptimis

TAF: LEXJ 311400Z 3115/0115 09012KT 9999 BKN045 TX17/0115Z TN07/0106Z TEMPO 3115/3121 07015G26KT BECMG 3118/3122 VRB05KT

Orai ataskaitas ir orų prognozės (METAR, TAF).

turimą stotys yra geltonos ir raudonos taškus žemėlapyje.

Perkelti pele per norėdami pamatyti stoties vardą.

Tada spustelėkite, norėdami matyti oro stebėjimo ir prognozės.

Norėdami pakeisti žemėlapį: spustelėkite ant žalios mygtukų su juodo kryžiaus žemyn,; žalią mygtuką su brūkšneliu, jei norite nutolinti; arba žalių rodyklių gretimoms žemėlapius.


METAR-TAF: